createdAt,value
2018-06-02T00:01:04.441Z,419.90
2018-06-02T00:03:32.025Z,419.73
2018-06-02T00:05:59.641Z,451.13
2018-06-02T00:08:27.214Z,448.00
2018-06-02T00:10:54.841Z,436.90
2018-06-02T00:13:23.198Z,433.77
2018-06-02T00:15:50.826Z,449.07
2018-06-02T00:18:18.440Z,420.07
2018-06-02T00:20:46.783Z,433.53
2018-06-02T00:23:14.392Z,421.30
2018-06-02T00:25:42.745Z,410.73
2018-06-02T00:28:10.521Z,433.33
2018-06-02T00:30:38.867Z,444.57
2018-06-02T00:33:06.481Z,453.30
2018-06-02T00:35:34.060Z,477.43
2018-06-02T00:38:01.673Z,487.47
2018-06-02T00:40:29.299Z,470.73
2018-06-02T00:42:56.886Z,491.30
2018-06-02T00:45:24.509Z,485.57
2018-06-02T00:47:52.140Z,489.40
2018-06-02T00:50:19.721Z,462.10
2018-06-02T00:52:47.307Z,480.67
2018-06-02T00:55:14.932Z,491.67
2018-06-02T00:57:42.511Z,493.40
2018-06-02T01:00:10.955Z,498.10
2018-06-02T01:02:38.575Z,498.07
2018-06-02T01:05:06.195Z,507.73
2018-06-02T01:07:34.541Z,509.10
2018-06-02T01:10:02.171Z,484.47
2018-06-02T01:12:29.746Z,495.97
2018-06-02T01:14:57.429Z,501.83
2018-06-02T01:17:25.005Z,522.23
2018-06-02T01:19:52.585Z,513.67
2018-06-02T01:22:20.196Z,544.33
2018-06-02T01:24:47.774Z,542.63
2018-06-02T01:27:15.398Z,444.13
2018-06-02T01:29:42.984Z,352.17
2018-06-02T01:32:10.617Z,297.40
2018-06-02T01:34:38.189Z,259.90
2018-06-02T01:37:05.769Z,232.17
2018-06-02T01:39:33.394Z,245.23
2018-06-02T01:42:00.986Z,228.17
2018-06-02T01:44:28.609Z,687.83
2018-06-02T01:46:56.207Z,679.93
2018-06-02T01:49:23.833Z,694.37
2018-06-02T01:51:51.404Z,659.00
2018-06-02T01:54:19.026Z,665.83
2018-06-02T01:56:46.614Z,644.50
2018-06-02T01:59:14.230Z,675.90
2018-06-02T02:01:41.861Z,656.40
2018-06-02T02:04:09.479Z,675.10
2018-06-02T02:06:37.091Z,665.43
2018-06-02T02:09:06.502Z,670.40
2018-06-02T02:11:34.126Z,686.53
2018-06-02T02:14:01.710Z,696.83
2018-06-02T02:16:29.330Z,698.10
2018-06-02T02:18:57.708Z,661.10
2018-06-02T02:21:26.054Z,680.93
2018-06-02T02:23:53.685Z,688.03
2018-06-02T02:26:21.262Z,690.73
2018-06-02T02:28:48.838Z,690.37
2018-06-02T02:31:16.458Z,669.63
2018-06-02T02:33:44.145Z,688.07
2018-06-02T02:36:11.765Z,672.43
2018-06-02T02:38:39.357Z,639.73
2018-06-02T02:41:07.013Z,625.27
2018-06-02T02:43:34.647Z,619.20
2018-06-02T02:46:02.234Z,607.60
2018-06-02T02:48:29.812Z,609.00
2018-06-02T02:50:57.472Z,586.07
2018-06-02T02:53:25.054Z,600.50
2018-06-02T02:55:52.670Z,601.33
2018-06-02T02:58:20.306Z,617.77
2018-06-02T03:00:47.887Z,617.50
2018-06-02T03:03:15.465Z,599.87
2018-06-02T03:05:43.096Z,643.80
2018-06-02T03:08:11.445Z,634.30
2018-06-02T03:10:39.873Z,629.90
2018-06-02T03:13:07.494Z,607.57
2018-06-02T03:15:35.078Z,580.93
2018-06-02T03:18:03.470Z,581.20
2018-06-02T03:20:31.044Z,568.40
2018-06-02T03:22:58.667Z,584.27
2018-06-02T03:25:26.287Z,577.83
2018-06-02T03:27:53.864Z,549.93
2018-06-02T03:30:21.485Z,560.10
2018-06-02T03:32:49.071Z,555.30
2018-06-02T03:35:16.701Z,561.80
2018-06-02T03:37:45.045Z,583.30
2018-06-02T03:40:12.641Z,570.50
2018-06-02T03:42:40.261Z,607.30
2018-06-02T03:45:07.863Z,637.23
2018-06-02T03:47:35.480Z,612.97
2018-06-02T03:50:03.115Z,668.17
2018-06-02T03:52:30.733Z,684.77
2018-06-02T03:54:59.073Z,681.50
2018-06-02T03:57:26.691Z,647.00
2018-06-02T03:59:54.277Z,670.63
2018-06-02T04:02:21.904Z,656.17
2018-06-02T04:04:49.509Z,673.17
2018-06-02T04:07:17.094Z,685.77
2018-06-02T04:09:44.711Z,689.53
2018-06-02T04:12:12.294Z,684.53
2018-06-02T04:14:39.918Z,665.43
2018-06-02T04:17:07.506Z,623.43
2018-06-02T04:19:35.121Z,618.97
2018-06-02T04:22:02.704Z,598.53
2018-06-02T04:24:30.332Z,576.73
2018-06-02T04:26:57.918Z,501.90
2018-06-02T04:29:26.266Z,530.47
2018-06-02T04:31:53.899Z,522.37
2018-06-02T04:34:21.500Z,529.90
2018-06-02T04:36:49.215Z,573.43
2018-06-02T04:39:16.802Z,577.40
2018-06-02T04:41:44.421Z,535.30
2018-06-02T04:44:12.013Z,525.77
2018-06-02T04:46:39.632Z,544.57
2018-06-02T04:49:07.210Z,515.77
2018-06-02T04:51:34.808Z,489.47
2018-06-02T04:54:02.482Z,505.73
2018-06-02T04:56:30.048Z,478.27
2018-06-02T04:58:57.669Z,463.53
2018-06-02T05:01:25.250Z,477.67
2018-06-02T05:03:52.876Z,473.83
2018-06-02T05:06:20.457Z,450.23
2018-06-02T05:08:48.069Z,466.47
2018-06-02T05:11:16.430Z,478.40
2018-06-02T05:13:44.134Z,480.20
2018-06-02T05:16:11.761Z,457.27
2018-06-02T05:18:39.353Z,450.07
2018-06-02T05:21:06.981Z,466.43
2018-06-02T05:23:34.580Z,447.80
2018-06-02T05:26:02.170Z,423.07
2018-06-02T05:28:29.788Z,394.87
2018-06-02T05:30:57.416Z,371.40
2018-06-02T05:33:25.042Z,381.10
2018-06-02T05:35:52.615Z,398.13
2018-06-02T05:38:20.228Z,425.90
2018-06-02T05:40:48.577Z,409.47
2018-06-02T05:43:16.952Z,407.47
2018-06-02T05:45:44.576Z,432.60
2018-06-02T05:48:12.161Z,409.00
2018-06-02T05:50:39.778Z,378.40
2018-06-02T05:53:08.126Z,381.77
2018-06-02T05:55:35.742Z,404.10
2018-06-02T05:58:03.321Z,428.23
2018-06-02T06:00:30.941Z,397.60
2018-06-02T06:02:58.565Z,426.40
2018-06-02T06:05:26.147Z,391.47
2018-06-02T06:07:53.765Z,437.70
2018-06-02T06:10:21.348Z,411.40
2018-06-02T06:12:48.973Z,386.43
2018-06-02T06:15:16.563Z,406.30
2018-06-02T06:17:44.185Z,416.77
2018-06-02T06:20:11.760Z,433.87
2018-06-02T06:22:41.205Z,392.30
2018-06-02T06:25:08.831Z,369.13
2018-06-02T06:27:36.410Z,365.13
2018-06-02T06:30:04.026Z,369.33
2018-06-02T06:32:32.362Z,381.87
2018-06-02T06:34:59.935Z,386.73
2018-06-02T06:37:27.547Z,380.33
2018-06-02T06:39:55.164Z,384.40
2018-06-02T06:42:22.745Z,374.20
2018-06-02T06:44:51.125Z,349.17
2018-06-02T06:47:19.463Z,367.33
2018-06-02T06:49:47.288Z,368.90
2018-06-02T06:52:14.855Z,380.57
2018-06-02T06:54:42.452Z,400.23
2018-06-02T06:57:10.065Z,391.23
2018-06-02T06:59:37.679Z,376.77
2018-06-02T07:02:05.259Z,381.90
2018-06-02T07:04:33.660Z,381.17
2018-06-02T07:07:02.008Z,376.60
2018-06-02T07:09:29.571Z,344.43
2018-06-02T07:11:57.228Z,342.23
2018-06-02T07:14:24.804Z,330.47
2018-06-02T07:16:52.385Z,376.00
2018-06-02T07:19:19.956Z,326.43
2018-06-02T07:21:47.584Z,322.30
2018-06-02T07:24:15.196Z,245.10
2018-06-02T07:26:42.773Z,261.47
2018-06-02T07:29:10.390Z,244.83
2018-06-02T07:31:38.729Z,267.17
2018-06-02T07:34:06.339Z,230.57
2018-06-02T07:36:33.908Z,237.17
2018-06-02T07:39:01.524Z,269.67
2018-06-02T07:41:29.096Z,269.03
2018-06-02T07:43:57.473Z,285.63
2018-06-02T07:46:25.047Z,236.03
2018-06-02T07:48:53.424Z,287.33
2018-06-02T07:51:21.770Z,279.87
2018-06-02T07:53:49.380Z,285.60
2018-06-02T07:56:16.956Z,211.70
2018-06-02T07:58:44.773Z,205.50
2018-06-02T08:01:12.347Z,219.77
2018-06-02T08:03:40.689Z,241.07
2018-06-02T08:06:08.299Z,272.17
2018-06-02T08:08:35.932Z,286.07
2018-06-02T08:11:03.547Z,295.03
2018-06-02T08:13:31.124Z,238.80
2018-06-02T08:15:58.741Z,241.20
2018-06-02T08:18:26.313Z,239.67
2018-06-02T08:20:53.894Z,279.80
2018-06-02T08:23:21.605Z,273.17
2018-06-02T08:25:49.204Z,317.70
2018-06-02T08:28:16.786Z,351.73
2018-06-02T08:30:44.441Z,353.97
2018-06-02T08:33:12.016Z,309.07
2018-06-02T08:35:39.599Z,310.00
2018-06-02T08:38:07.235Z,325.77
2018-06-02T08:40:34.811Z,318.73
2018-06-02T08:43:02.430Z,324.33
2018-06-02T08:45:30.006Z,336.10
2018-06-02T08:47:57.575Z,324.10
2018-06-02T08:50:25.205Z,328.40
2018-06-02T08:52:52.774Z,359.03
2018-06-02T08:55:20.345Z,335.93
2018-06-02T08:57:47.952Z,304.83
2018-06-02T09:00:15.569Z,344.10
2018-06-02T09:02:43.146Z,319.83
2018-06-02T09:05:10.766Z,287.23
2018-06-02T09:07:39.109Z,321.70
2018-06-02T09:10:06.715Z,315.50
2018-06-02T09:12:34.337Z,243.77
2018-06-02T09:15:01.953Z,306.90
2018-06-02T09:17:29.530Z,322.97
2018-06-02T09:19:57.397Z,317.37
2018-06-02T09:22:24.967Z,267.50
2018-06-02T09:24:52.577Z,297.50
2018-06-02T09:27:20.907Z,296.73
2018-06-02T09:29:48.514Z,280.97
2018-06-02T09:32:16.149Z,250.60
2018-06-02T09:34:43.774Z,235.73
2018-06-02T09:37:11.349Z,273.77
2018-06-02T09:39:38.928Z,271.70
2018-06-02T09:42:06.553Z,247.63
2018-06-02T09:44:34.141Z,256.87
2018-06-02T09:47:01.718Z,244.87
2018-06-02T09:49:29.346Z,249.00
2018-06-02T09:51:56.920Z,253.57
2018-06-02T09:54:24.542Z,217.10
2018-06-02T09:56:52.120Z,227.03
2018-06-02T09:59:19.735Z,217.60
2018-06-02T10:01:47.309Z,261.13
2018-06-02T10:04:14.915Z,270.63
2018-06-02T10:06:42.492Z,223.27
2018-06-02T10:09:10.109Z,243.53
2018-06-02T10:11:37.679Z,238.27
2018-06-02T10:14:05.306Z,260.00
2018-06-02T10:16:32.927Z,240.50
2018-06-02T10:19:00.543Z,260.33
2018-06-02T10:21:28.877Z,291.67
2018-06-02T10:23:56.569Z,245.90
2018-06-02T10:26:24.144Z,303.60
2018-06-02T10:28:52.815Z,269.60
2018-06-02T10:31:20.396Z,300.43
2018-06-02T10:33:48.797Z,218.93
2018-06-02T10:36:16.373Z,309.67
2018-06-02T10:38:43.994Z,313.67
2018-06-02T10:41:12.337Z,295.13
2018-06-02T10:43:39.940Z,318.17
2018-06-02T10:46:07.548Z,313.07
2018-06-02T10:48:35.132Z,314.07
2018-06-02T10:51:02.740Z,298.47
2018-06-02T10:53:30.357Z,309.97
2018-06-02T10:55:57.986Z,303.00
2018-06-02T10:58:25.606Z,318.33
2018-06-02T11:00:53.152Z,316.17
2018-06-02T11:03:20.762Z,314.50
2018-06-02T11:05:48.386Z,301.30
2018-06-02T11:08:16.758Z,324.80
2018-06-02T11:10:45.097Z,323.07
2018-06-02T11:13:12.711Z,308.67
2018-06-02T11:15:41.089Z,319.17
2018-06-02T11:18:09.432Z,334.63
2018-06-02T11:20:37.042Z,282.67
2018-06-02T11:23:04.662Z,296.47
2018-06-02T11:25:32.232Z,349.47
2018-06-02T11:27:59.860Z,324.10
2018-06-02T11:30:27.435Z,371.67
2018-06-02T11:32:55.093Z,408.10
2018-06-02T11:35:22.675Z,492.83
2018-06-02T11:37:50.301Z,271.90
2018-06-02T11:40:17.923Z,262.63
2018-06-02T11:42:45.505Z,307.50
2018-06-02T11:45:13.092Z,346.77
2018-06-02T11:47:40.715Z,356.27
2018-06-02T11:50:08.326Z,341.13
2018-06-02T11:52:35.935Z,355.80
2018-06-02T11:55:03.576Z,322.10
2018-06-02T11:57:31.193Z,346.70
2018-06-02T11:59:58.916Z,343.77
2018-06-02T12:02:27.264Z,338.97
2018-06-02T12:04:54.871Z,309.27
2018-06-02T12:07:22.452Z,319.27
2018-06-02T12:09:50.020Z,311.77
2018-06-02T12:12:17.636Z,320.13
2018-06-02T12:14:45.208Z,261.47
2018-06-02T12:17:12.825Z,256.80
2018-06-02T12:19:40.504Z,276.37
2018-06-02T12:22:08.097Z,254.40
2018-06-02T12:24:35.675Z,266.47
2018-06-02T12:27:03.396Z,260.77
2018-06-02T12:29:30.975Z,227.30
2018-06-02T12:31:59.757Z,211.23
2018-06-02T12:34:27.375Z,200.97
2018-06-02T12:36:54.971Z,220.90
2018-06-02T12:39:22.585Z,217.90
2018-06-02T12:41:50.160Z,230.37
2018-06-02T12:44:17.768Z,222.93
2018-06-02T12:46:45.388Z,241.77
2018-06-02T12:49:12.980Z,185.67
2018-06-02T12:51:41.375Z,201.77
2018-06-02T12:54:08.958Z,196.33
2018-06-02T12:56:36.649Z,194.67
2018-06-02T12:59:04.259Z,191.03
2018-06-02T13:01:31.823Z,205.17
2018-06-02T13:03:59.443Z,180.43
2018-06-02T13:06:27.104Z,163.23
2018-06-02T13:08:54.687Z,166.93
2018-06-02T13:11:22.300Z,160.10
2018-06-02T13:13:49.876Z,176.33
2018-06-02T13:16:17.484Z,132.97
2018-06-02T13:18:45.056Z,138.30
2018-06-02T13:21:12.705Z,164.47
2018-06-02T13:23:40.392Z,124.87
2018-06-02T13:26:07.973Z,113.30
2018-06-02T13:28:35.556Z,103.77
2018-06-02T13:31:03.174Z,124.90
2018-06-02T13:33:30.832Z,110.13
2018-06-02T13:35:58.439Z,94.87
2018-06-02T13:38:26.125Z,80.93
2018-06-02T13:40:53.689Z,78.60
2018-06-02T13:43:21.284Z,78.00
2018-06-02T13:45:48.857Z,85.00
2018-06-02T13:48:16.464Z,68.03
2018-06-02T13:50:44.048Z,80.13
2018-06-02T13:53:11.653Z,64.87
2018-06-02T13:55:39.221Z,84.23
2018-06-02T13:58:06.829Z,92.77
2018-06-02T14:00:35.195Z,93.47
2018-06-02T14:03:03.584Z,106.07
2018-06-02T14:05:31.943Z,91.90
2018-06-02T14:07:59.511Z,99.40
2018-06-02T14:10:27.232Z,93.33
2018-06-02T14:12:54.791Z,121.80
2018-06-02T14:15:22.401Z,101.00
2018-06-02T14:17:50.743Z,101.93
2018-06-02T14:20:18.344Z,77.70
2018-06-02T14:22:45.955Z,82.40
2018-06-02T14:25:13.562Z,53.43
2018-06-02T14:27:41.140Z,54.80
2018-06-02T14:30:08.751Z,67.67
2018-06-02T14:32:36.313Z,61.23
2018-06-02T14:35:03.937Z,62.47
2018-06-02T14:37:31.507Z,57.30
2018-06-02T14:39:59.141Z,58.33
2018-06-02T14:42:27.534Z,87.37
2018-06-02T14:44:55.154Z,98.70
2018-06-02T14:47:22.757Z,131.27
2018-06-02T14:49:50.371Z,123.30
2018-06-02T14:52:17.963Z,115.33
2018-06-02T14:54:46.307Z,109.90
2018-06-02T14:57:13.927Z,115.73
2018-06-02T14:59:41.503Z,104.47
2018-06-02T15:02:09.104Z,111.27
2018-06-02T15:04:36.717Z,96.00
2018-06-02T15:07:04.370Z,108.60
2018-06-02T15:09:31.978Z,113.83
2018-06-02T15:11:59.551Z,103.70
2018-06-02T15:14:27.173Z,116.90
2018-06-02T15:16:54.752Z,148.13
2018-06-02T15:19:22.330Z,149.37
2018-06-02T15:21:49.941Z,161.80
2018-06-02T15:24:17.515Z,183.30
2018-06-02T15:26:45.125Z,217.97
2018-06-02T15:29:12.701Z,221.77
2018-06-02T15:31:40.312Z,226.40
2018-06-02T15:34:07.937Z,287.33
2018-06-02T15:36:35.901Z,291.80
2018-06-02T15:39:05.001Z,280.93
2018-06-02T15:41:32.701Z,296.33
2018-06-02T15:44:00.305Z,298.97
2018-06-02T15:46:27.883Z,295.73
2018-06-02T15:48:56.272Z,309.17
2018-06-02T15:51:23.885Z,298.40
2018-06-02T15:53:51.469Z,292.37
2018-06-02T15:56:19.852Z,301.90
2018-06-02T15:58:48.207Z,309.93
2018-06-02T16:01:15.809Z,292.37
2018-06-02T16:03:43.425Z,309.27
2018-06-02T16:06:10.996Z,283.67
2018-06-02T16:08:38.613Z,297.27
2018-06-02T16:11:06.208Z,284.83
2018-06-02T16:13:33.848Z,281.53
2018-06-02T16:16:01.428Z,273.93
2018-06-02T16:18:29.050Z,252.03
2018-06-02T16:20:56.637Z,255.67
2018-06-02T16:23:24.251Z,261.63
2018-06-02T16:25:52.675Z,278.43
2018-06-02T16:28:20.249Z,277.70
2018-06-02T16:30:47.867Z,273.37
2018-06-02T16:33:15.485Z,275.23
2018-06-02T16:35:43.097Z,271.63
2018-06-02T16:38:10.721Z,276.27
2018-06-02T16:40:38.339Z,283.93
2018-06-02T16:43:05.953Z,268.23
2018-06-02T16:45:33.539Z,278.27
2018-06-02T16:48:01.469Z,279.87
2018-06-02T16:50:29.064Z,265.80
2018-06-02T16:52:56.688Z,277.33
2018-06-02T16:55:24.261Z,290.40
2018-06-02T16:57:51.938Z,286.63
2018-06-02T17:00:19.587Z,300.00
2018-06-02T17:02:47.186Z,259.63
2018-06-02T17:05:14.838Z,300.33
2018-06-02T17:07:42.425Z,263.17
2018-06-02T17:10:10.092Z,271.03
2018-06-02T17:12:37.673Z,284.37
2018-06-02T17:15:05.291Z,298.53
2018-06-02T17:17:32.885Z,287.60
2018-06-02T17:20:00.560Z,291.67
2018-06-02T17:22:28.288Z,305.00
2018-06-02T17:24:56.037Z,276.93
2018-06-02T17:27:23.632Z,296.27
2018-06-02T17:29:51.216Z,308.70
2018-06-02T17:32:18.830Z,285.87
2018-06-02T17:34:46.453Z,303.43
2018-06-02T17:37:14.068Z,266.00
2018-06-02T17:39:41.661Z,276.30
2018-06-02T17:42:09.285Z,277.83
2018-06-02T17:44:36.943Z,290.33
2018-06-02T17:47:04.560Z,291.97
2018-06-02T17:49:32.188Z,284.33
2018-06-02T17:51:59.770Z,283.40
2018-06-02T17:54:27.364Z,311.23
2018-06-02T17:56:55.754Z,311.83
2018-06-02T17:59:23.384Z,296.83
2018-06-02T18:01:50.974Z,297.53
2018-06-02T18:04:19.315Z,286.13
2018-06-02T18:06:46.949Z,290.13
2018-06-02T18:09:14.584Z,293.80
2018-06-02T18:11:42.214Z,291.50
2018-06-02T18:14:09.799Z,283.10
2018-06-02T18:16:37.422Z,254.37
2018-06-02T18:19:05.021Z,277.70
2018-06-02T18:21:32.665Z,271.00
2018-06-02T18:24:01.016Z,283.93
2018-06-02T18:26:28.604Z,276.83
2018-06-02T18:28:56.991Z,261.33
2018-06-02T18:31:25.333Z,243.63
2018-06-02T18:33:52.955Z,224.90
2018-06-02T18:36:20.535Z,248.50
2018-06-02T18:38:48.155Z,251.17
2018-06-02T18:41:15.835Z,247.87
2018-06-02T18:43:43.452Z,244.43
2018-06-02T18:46:11.030Z,228.53
2018-06-02T18:48:38.653Z,216.83
2018-06-02T18:51:06.233Z,270.23
2018-06-02T18:53:34.660Z,311.47
2018-06-02T18:56:03.050Z,312.87
2018-06-02T18:58:30.654Z,254.40
2018-06-02T19:00:58.321Z,248.70
2018-06-02T19:03:25.933Z,263.80
2018-06-02T19:05:53.521Z,246.23
2018-06-02T19:08:21.139Z,207.57
2018-06-02T19:10:48.740Z,202.33
2018-06-02T19:13:16.374Z,235.27
2018-06-02T19:15:43.975Z,232.70
2018-06-02T19:18:11.591Z,232.90
2018-06-02T19:20:39.218Z,229.50
2018-06-02T19:23:06.800Z,237.13
2018-06-02T19:25:35.146Z,233.53
2018-06-02T19:28:02.781Z,236.53
2018-06-02T19:30:30.365Z,239.17
2018-06-02T19:32:57.953Z,222.03
2018-06-02T19:35:26.344Z,222.17
2018-06-02T19:37:53.948Z,229.40
2018-06-02T19:40:21.572Z,222.20
2018-06-02T19:42:49.960Z,221.37
2018-06-02T19:45:17.596Z,226.63
2018-06-02T19:47:45.950Z,219.97
2018-06-02T19:50:13.572Z,209.63
2018-06-02T19:52:41.193Z,211.20
2018-06-02T19:55:08.835Z,214.37
2018-06-02T19:57:36.422Z,206.00
2018-06-02T20:00:04.002Z,214.33
2018-06-02T20:02:32.393Z,215.63
2018-06-02T20:04:59.977Z,174.47
2018-06-02T20:07:27.594Z,184.20
2018-06-02T20:09:55.951Z,211.43
2018-06-02T20:12:23.623Z,264.73
2018-06-02T20:14:51.237Z,255.60
2018-06-02T20:17:18.853Z,270.50
2018-06-02T20:19:46.436Z,260.43
2018-06-02T20:22:14.826Z,264.40
2018-06-02T20:27:16.273Z,258.53
2018-06-02T20:29:43.852Z,258.00
2018-06-02T20:32:11.474Z,243.83
2018-06-02T20:34:39.069Z,254.27
2018-06-02T20:37:06.708Z,248.43
2018-06-02T20:39:35.313Z,265.70
2018-06-02T20:42:03.664Z,253.67
2018-06-02T20:44:31.283Z,249.63
2018-06-02T20:46:58.866Z,237.47
2018-06-02T20:49:26.479Z,199.90
2018-06-02T20:51:54.160Z,184.90
2018-06-02T20:54:21.763Z,170.00
2018-06-02T20:56:49.373Z,153.87
2018-06-02T20:59:17.006Z,149.67
2018-06-02T21:01:45.362Z,162.53
2018-06-02T21:04:12.944Z,164.13
2018-06-02T21:06:40.563Z,147.47
2018-06-02T21:09:08.136Z,139.10
2018-06-02T21:11:35.787Z,132.80
2018-06-02T21:14:03.363Z,119.67
2018-06-02T21:16:30.982Z,164.63
2018-06-02T21:18:58.573Z,216.47
2018-06-02T21:21:26.200Z,218.70
2018-06-02T21:23:53.796Z,217.87
2018-06-02T21:26:21.417Z,221.00
2018-06-02T21:28:48.997Z,224.40
2018-06-02T21:31:16.627Z,203.93
2018-06-02T21:33:44.223Z,214.83
2018-06-02T21:36:11.812Z,223.57
2018-06-02T21:38:39.445Z,232.73
2018-06-02T21:41:07.034Z,213.90
2018-06-02T21:43:34.657Z,213.23
2018-06-02T21:46:02.234Z,195.17
2018-06-02T21:48:29.860Z,205.40
2018-06-02T21:50:58.255Z,213.70
2018-06-02T21:53:25.872Z,211.47
2018-06-02T21:55:53.454Z,210.43
2018-06-02T21:58:21.076Z,206.43
2018-06-02T22:00:48.659Z,220.97
2018-06-02T22:03:16.244Z,206.53
2018-06-02T22:05:44.633Z,208.33
2018-06-02T22:08:12.981Z,200.17
2018-06-02T22:10:40.606Z,174.60
2018-06-02T22:13:08.248Z,167.70
2018-06-02T22:15:35.844Z,165.67
2018-06-02T22:18:03.568Z,129.63
2018-06-02T22:20:33.299Z,141.90
2018-06-02T22:23:01.129Z,147.40
2018-06-02T22:25:29.659Z,137.87
2018-06-02T22:27:57.361Z,128.43
2018-06-02T22:30:25.039Z,145.40
2018-06-02T22:32:53.516Z,347.43
2018-06-02T22:35:21.368Z,350.20
2018-06-02T22:37:48.953Z,328.63
2018-06-02T22:40:17.341Z,314.00
2018-06-02T22:42:45.003Z,279.10
2018-06-02T22:45:13.044Z,257.13
2018-06-02T22:47:41.838Z,264.53
2018-06-02T22:50:09.553Z,238.53
2018-06-02T22:52:37.163Z,280.87
2018-06-02T22:55:04.795Z,335.60
2018-06-02T22:57:32.432Z,320.33
2018-06-02T23:00:00.052Z,328.60
2018-06-02T23:02:28.408Z,392.90
2018-06-02T23:04:56.084Z,425.03
2018-06-02T23:07:23.713Z,442.53
2018-06-02T23:09:51.341Z,348.97
2018-06-02T23:12:18.937Z,301.50
2018-06-02T23:14:46.513Z,288.90
2018-06-02T23:17:14.147Z,302.93
2018-06-02T23:19:41.771Z,264.53
2018-06-02T23:25:39.872Z,291.27
2018-06-02T23:28:08.539Z,294.63
2018-06-02T23:30:36.984Z,271.50
2018-06-02T23:33:05.885Z,291.37
2018-06-02T23:35:34.388Z,307.93
2018-06-02T23:38:02.915Z,403.50
2018-06-02T23:40:31.404Z,388.20
2018-06-02T23:43:00.047Z,402.83
2018-06-02T23:45:28.517Z,373.37
2018-06-02T23:47:57.044Z,350.37
2018-06-02T23:50:25.823Z,333.07
2018-06-02T23:52:54.070Z,346.93
2018-06-02T23:55:22.605Z,373.20
2018-06-02T23:57:51.145Z,377.27
